Terminal Aerodrome Forecast
Issued by NWS Tuscon, AZ

Current Version | Previous Version | Text Only | Print | Product List | Glossary On
Versions: 1 2 3 4 5 6 7 8 9 10 11 12 13
008
FTUS45 KTWC 061733
TAFDUG
TAF
KDUG 061733Z 0618/0718 36006KT P6SM SCT250
     FM062000 08010KT P6SM FEW250
     FM070200 04008KT P6SM SKC=

USA.gov is the U.S. government's official web portal to all federal, state and local government web resources and services.